sensor_id;sensor_type;location;lat;lon;timestamp;P1;durP1;ratioP1;P2;durP2;ratioP2
33810;SDS011;20119;48.334;16.206;2022-12-07T00:00:11;30.95;;;21.60;;
33810;SDS011;20119;48.334;16.206;2022-12-07T00:02:40;30.75;;;21.85;;
33810;SDS011;20119;48.334;16.206;2022-12-07T00:10:22;30.73;;;21.85;;
33810;SDS011;20119;48.334;16.206;2022-12-07T00:12:49;28.23;;;20.90;;
33810;SDS011;20119;48.334;16.206;2022-12-07T00:15:19;29.75;;;21.52;;
33810;SDS011;20119;48.334;16.206;2022-12-07T00:17:46;29.23;;;20.65;;
33810;SDS011;20119;48.334;16.206;2022-12-07T00:20:13;28.00;;;21.48;;
33810;SDS011;20119;48.334;16.206;2022-12-07T00:22:40;29.75;;;20.25;;
33810;SDS011;20119;48.334;16.206;2022-12-07T00:25:07;28.55;;;20.60;;
33810;SDS011;20119;48.334;16.206;2022-12-07T00:27:34;30.17;;;22.17;;
33810;SDS011;20119;48.334;16.206;2022-12-07T00:37:49;30.48;;;22.23;;
33810;SDS011;20119;48.334;16.206;2022-12-07T00:40:16;32.15;;;22.80;;
33810;SDS011;20119;48.334;16.206;2022-12-07T00:42:43;33.78;;;22.52;;
33810;SDS011;20119;48.334;16.206;2022-12-07T00:45:12;31.42;;;22.48;;
33810;SDS011;20119;48.334;16.206;2022-12-07T00:47:40;33.20;;;23.50;;
33810;SDS011;20119;48.334;16.206;2022-12-07T00:50:07;33.75;;;24.38;;
33810;SDS011;20119;48.334;16.206;2022-12-07T00:55:14;35.25;;;24.75;;
33810;SDS011;20119;48.334;16.206;2022-12-07T01:02:52;34.88;;;24.70;;
33810;SDS011;20119;48.334;16.206;2022-12-07T01:05:19;35.45;;;25.42;;
33810;SDS011;20119;48.334;16.206;2022-12-07T01:15:34;36.67;;;25.45;;
33810;SDS011;20119;48.334;16.206;2022-12-07T01:18:04;38.15;;;25.98;;
33810;SDS011;20119;48.334;16.206;2022-12-07T01:20:37;35.25;;;24.90;;
33810;SDS011;20119;48.334;16.206;2022-12-07T01:23:06;36.33;;;24.92;;
33810;SDS011;20119;48.334;16.206;2022-12-07T01:25:34;37.00;;;26.45;;
33810;SDS011;20119;48.334;16.206;2022-12-07T01:28:01;37.75;;;25.98;;
33810;SDS011;20119;48.334;16.206;2022-12-07T01:30:30;38.88;;;26.08;;
33810;SDS011;20119;48.334;16.206;2022-12-07T01:32:59;36.67;;;25.83;;
33810;SDS011;20119;48.334;16.206;2022-12-07T01:35:26;36.60;;;25.75;;
33810;SDS011;20119;48.334;16.206;2022-12-07T01:45:48;35.47;;;24.88;;
33810;SDS011;20119;48.334;16.206;2022-12-07T01:48:18;35.75;;;24.25;;
33810;SDS011;20119;48.334;16.206;2022-12-07T01:50:50;35.72;;;24.08;;
33810;SDS011;20119;48.334;16.206;2022-12-07T01:53:21;34.92;;;24.60;;
33810;SDS011;20119;48.334;16.206;2022-12-07T01:55:51;33.53;;;24.05;;
33810;SDS011;20119;48.334;16.206;2022-12-07T01:58:19;33.35;;;24.40;;
33810;SDS011;20119;48.334;16.206;2022-12-07T02:03:25;35.80;;;24.60;;
33810;SDS011;20119;48.334;16.206;2022-12-07T02:06:00;36.80;;;25.42;;
33810;SDS011;20119;48.334;16.206;2022-12-07T02:08:28;36.55;;;24.88;;
33810;SDS011;20119;48.334;16.206;2022-12-07T02:10:55;35.70;;;24.65;;
33810;SDS011;20119;48.334;16.206;2022-12-07T02:13:25;34.97;;;23.83;;
33810;SDS011;20119;48.334;16.206;2022-12-07T02:16:08;35.97;;;23.77;;
33810;SDS011;20119;48.334;16.206;2022-12-07T02:18:48;35.53;;;24.02;;
33810;SDS011;20119;48.334;16.206;2022-12-07T02:21:25;33.67;;;23.55;;
33810;SDS011;20119;48.334;16.206;2022-12-07T02:24:10;33.85;;;23.45;;
33810;SDS011;20119;48.334;16.206;2022-12-07T02:29:36;34.75;;;22.65;;
33810;SDS011;20119;48.334;16.206;2022-12-07T05:41:02;28.05;;;19.35;;
33810;SDS011;20119;48.334;16.206;2022-12-07T06:30:08;24.58;;;17.27;;
33810;SDS011;20119;48.334;16.206;2022-12-07T06:32:35;29.17;;;17.85;;
33810;SDS011;20119;48.334;16.206;2022-12-07T06:35:03;26.30;;;17.38;;
33810;SDS011;20119;48.334;16.206;2022-12-07T06:37:30;27.45;;;17.58;;
33810;SDS011;20119;48.334;16.206;2022-12-07T06:39:57;25.55;;;18.02;;
33810;SDS011;20119;48.334;16.206;2022-12-07T06:45:00;28.05;;;17.75;;
33810;SDS011;20119;48.334;16.206;2022-12-07T06:47:28;25.20;;;17.42;;
33810;SDS011;20119;48.334;16.206;2022-12-07T06:49:55;25.15;;;16.95;;
33810;SDS011;20119;48.334;16.206;2022-12-07T06:52:22;23.85;;;16.50;;
33810;SDS011;20119;48.334;16.206;2022-12-07T06:54:48;24.95;;;17.77;;
33810;SDS011;20119;48.334;16.206;2022-12-07T06:57:15;26.42;;;16.95;;
33810;SDS011;20119;48.334;16.206;2022-12-07T06:59:42;25.35;;;17.52;;
33810;SDS011;20119;48.334;16.206;2022-12-07T07:02:09;25.63;;;17.83;;
33810;SDS011;20119;48.334;16.206;2022-12-07T07:04:38;28.50;;;17.98;;
33810;SDS011;20119;48.334;16.206;2022-12-07T07:07:05;26.13;;;17.27;;
33810;SDS011;20119;48.334;16.206;2022-12-07T07:09:31;26.17;;;17.25;;
33810;SDS011;20119;48.334;16.206;2022-12-07T07:11:58;24.23;;;16.88;;
33810;SDS011;20119;48.334;16.206;2022-12-07T07:14:25;25.60;;;17.08;;
33810;SDS011;20119;48.334;16.206;2022-12-07T07:16:52;25.80;;;17.05;;
33810;SDS011;20119;48.334;16.206;2022-12-07T07:21:56;21.77;;;15.88;;
33810;SDS011;20119;48.334;16.206;2022-12-07T07:24:23;22.33;;;15.70;;
33810;SDS011;20119;48.334;16.206;2022-12-07T07:26:50;23.42;;;15.88;;
33810;SDS011;20119;48.334;16.206;2022-12-07T07:29:17;22.27;;;16.35;;
33810;SDS011;20119;48.334;16.206;2022-12-07T07:34:19;25.52;;;15.70;;
33810;SDS011;20119;48.334;16.206;2022-12-07T07:39:22;21.13;;;14.45;;
33810;SDS011;20119;48.334;16.206;2022-12-07T07:41:49;20.17;;;14.40;;
33810;SDS011;20119;48.334;16.206;2022-12-07T07:44:16;21.45;;;15.25;;
33810;SDS011;20119;48.334;16.206;2022-12-07T07:46:42;20.15;;;13.68;;
33810;SDS011;20119;48.334;16.206;2022-12-07T07:49:10;19.55;;;14.35;;
33810;SDS011;20119;48.334;16.206;2022-12-07T07:56:49;21.00;;;14.43;;
33810;SDS011;20119;48.334;16.206;2022-12-07T07:59:15;18.70;;;14.00;;
33810;SDS011;20119;48.334;16.206;2022-12-07T08:01:42;19.63;;;14.05;;
33810;SDS011;20119;48.334;16.206;2022-12-07T08:04:09;20.60;;;13.25;;
33810;SDS011;20119;48.334;16.206;2022-12-07T08:06:36;19.33;;;13.55;;
33810;SDS011;20119;48.334;16.206;2022-12-07T08:09:03;15.95;;;12.77;;
33810;SDS011;20119;48.334;16.206;2022-12-07T08:11:31;15.55;;;12.38;;
33810;SDS011;20119;48.334;16.206;2022-12-07T08:16:36;17.20;;;12.25;;
33810;SDS011;20119;48.334;16.206;2022-12-07T08:19:05;16.83;;;12.63;;
33810;SDS011;20119;48.334;16.206;2022-12-07T08:21:32;16.13;;;12.05;;
33810;SDS011;20119;48.334;16.206;2022-12-07T08:23:59;14.75;;;11.75;;
33810;SDS011;20119;48.334;16.206;2022-12-07T08:26:26;14.10;;;11.50;;
33810;SDS011;20119;48.334;16.206;2022-12-07T08:31:29;14.80;;;10.95;;
33810;SDS011;20119;48.334;16.206;2022-12-07T08:33:57;15.52;;;10.73;;
33810;SDS011;20119;48.334;16.206;2022-12-07T08:36:24;13.25;;;10.77;;
33810;SDS011;20119;48.334;16.206;2022-12-07T08:38:51;14.07;;;10.32;;
33810;SDS011;20119;48.334;16.206;2022-12-07T08:41:18;13.90;;;9.82;;
33810;SDS011;20119;48.334;16.206;2022-12-07T08:43:45;12.88;;;10.35;;
33810;SDS011;20119;48.334;16.206;2022-12-07T08:46:13;14.45;;;10.10;;
33810;SDS011;20119;48.334;16.206;2022-12-07T08:48:45;13.23;;;10.32;;
33810;SDS011;20119;48.334;16.206;2022-12-07T08:51:17;12.18;;;10.13;;
33810;SDS011;20119;48.334;16.206;2022-12-07T08:53:44;12.55;;;10.00;;
33810;SDS011;20119;48.334;16.206;2022-12-07T08:58:47;13.38;;;10.30;;
33810;SDS011;20119;48.334;16.206;2022-12-07T09:03:50;12.40;;;10.02;;
33810;SDS011;20119;48.334;16.206;2022-12-07T09:08:57;11.63;;;9.80;;
33810;SDS011;20119;48.334;16.206;2022-12-07T09:11:30;12.10;;;9.50;;
33810;SDS011;20119;48.334;16.206;2022-12-07T09:13:57;11.73;;;9.43;;
33810;SDS011;20119;48.334;16.206;2022-12-07T09:16:24;11.95;;;9.63;;
33810;SDS011;20119;48.334;16.206;2022-12-07T09:21:26;10.50;;;8.90;;
33810;SDS011;20119;48.334;16.206;2022-12-07T09:23:53;10.75;;;9.07;;
33810;SDS011;20119;48.334;16.206;2022-12-07T09:26:21;14.07;;;10.15;;
33810;SDS011;20119;48.334;16.206;2022-12-07T09:34:00;10.65;;;8.40;;
33810;SDS011;20119;48.334;16.206;2022-12-07T09:36:27;10.35;;;8.50;;
33810;SDS011;20119;48.334;16.206;2022-12-07T09:38:54;9.52;;;8.02;;
33810;SDS011;20119;48.334;16.206;2022-12-07T09:41:23;9.95;;;8.10;;
33810;SDS011;20119;48.334;16.206;2022-12-07T09:43:52;9.32;;;7.93;;
33810;SDS011;20119;48.334;16.206;2022-12-07T09:46:29;10.52;;;8.88;;
33810;SDS011;20119;48.334;16.206;2022-12-07T09:49:01;11.38;;;8.80;;
33810;SDS011;20119;48.334;16.206;2022-12-07T09:59:19;10.60;;;8.45;;
33810;SDS011;20119;48.334;16.206;2022-12-07T10:01:47;10.70;;;8.35;;
33810;SDS011;20119;48.334;16.206;2022-12-07T10:04:18;11.35;;;9.20;;
33810;SDS011;20119;48.334;16.206;2022-12-07T10:06:47;12.35;;;9.35;;
33810;SDS011;20119;48.334;16.206;2022-12-07T10:11:57;13.45;;;9.80;;
33810;SDS011;20119;48.334;16.206;2022-12-07T10:14:27;12.38;;;9.40;;
33810;SDS011;20119;48.334;16.206;2022-12-07T10:16:55;11.27;;;9.07;;
33810;SDS011;20119;48.334;16.206;2022-12-07T10:19:23;11.63;;;9.65;;
33810;SDS011;20119;48.334;16.206;2022-12-07T10:24:36;11.13;;;9.00;;
33810;SDS011;20119;48.334;16.206;2022-12-07T10:29:41;11.82;;;9.00;;
33810;SDS011;20119;48.334;16.206;2022-12-07T10:32:26;11.60;;;8.32;;
33810;SDS011;20119;48.334;16.206;2022-12-07T10:35:15;12.75;;;8.50;;
33810;SDS011;20119;48.334;16.206;2022-12-07T10:43:00;12.23;;;8.68;;
33810;SDS011;20119;48.334;16.206;2022-12-07T10:48:06;10.45;;;7.95;;
33810;SDS011;20119;48.334;16.206;2022-12-07T10:50:50;8.10;;;6.70;;
33810;SDS011;20119;48.334;16.206;2022-12-07T10:53:28;9.35;;;7.50;;
33810;SDS011;20119;48.334;16.206;2022-12-07T10:56:06;9.52;;;7.53;;
33810;SDS011;20119;48.334;16.206;2022-12-07T10:58:49;11.00;;;7.53;;
33810;SDS011;20119;48.334;16.206;2022-12-07T11:04:14;9.95;;;8.20;;
33810;SDS011;20119;48.334;16.206;2022-12-07T11:06:51;8.57;;;7.32;;
33810;SDS011;20119;48.334;16.206;2022-12-07T11:09:29;11.13;;;7.05;;
33810;SDS011;20119;48.334;16.206;2022-12-07T11:12:09;9.13;;;7.07;;
33810;SDS011;20119;48.334;16.206;2022-12-07T11:14:48;8.77;;;6.85;;
33810;SDS011;20119;48.334;16.206;2022-12-07T11:17:23;10.13;;;6.60;;
33810;SDS011;20119;48.334;16.206;2022-12-07T11:20:11;7.15;;;5.90;;
33810;SDS011;20119;48.334;16.206;2022-12-07T11:22:57;8.77;;;4.00;;
33810;SDS011;20119;48.334;16.206;2022-12-07T11:25:31;3.78;;;3.33;;
33810;SDS011;20119;48.334;16.206;2022-12-07T11:28:06;4.10;;;3.50;;
33810;SDS011;20119;48.334;16.206;2022-12-07T11:30:47;4.50;;;3.80;;
33810;SDS011;20119;48.334;16.206;2022-12-07T11:35:57;8.93;;;5.80;;
33810;SDS011;20119;48.334;16.206;2022-12-07T11:38:35;5.45;;;4.65;;
33810;SDS011;20119;48.334;16.206;2022-12-07T11:41:18;6.30;;;4.75;;
33810;SDS011;20119;48.334;16.206;2022-12-07T11:49:02;7.60;;;6.25;;
33810;SDS011;20119;48.334;16.206;2022-12-07T11:54:14;9.55;;;6.30;;
33810;SDS011;20119;48.334;16.206;2022-12-07T11:56:45;7.90;;;6.35;;
33810;SDS011;20119;48.334;16.206;2022-12-07T11:59:17;8.27;;;6.20;;
33810;SDS011;20119;48.334;16.206;2022-12-07T12:01:52;7.30;;;6.50;;
33810;SDS011;20119;48.334;16.206;2022-12-07T12:04:27;6.45;;;5.13;;
33810;SDS011;20119;48.334;16.206;2022-12-07T12:07:06;8.27;;;6.25;;
33810;SDS011;20119;48.334;16.206;2022-12-07T12:14:48;7.75;;;6.30;;
33810;SDS011;20119;48.334;16.206;2022-12-07T12:17:32;9.98;;;6.90;;
33810;SDS011;20119;48.334;16.206;2022-12-07T12:20:17;7.72;;;6.50;;
33810;SDS011;20119;48.334;16.206;2022-12-07T12:25:20;9.50;;;7.03;;
33810;SDS011;20119;48.334;16.206;2022-12-07T12:30:34;7.15;;;5.65;;
33810;SDS011;20119;48.334;16.206;2022-12-07T12:35:37;8.57;;;6.43;;
33810;SDS011;20119;48.334;16.206;2022-12-07T12:40:51;10.05;;;6.20;;
33810;SDS011;20119;48.334;16.206;2022-12-07T12:49:33;8.23;;;6.82;;
33810;SDS011;20119;48.334;16.206;2022-12-07T12:55:12;11.23;;;7.80;;
33810;SDS011;20119;48.334;16.206;2022-12-07T12:57:43;12.43;;;8.45;;
33810;SDS011;20119;48.334;16.206;2022-12-07T13:00:15;10.95;;;8.40;;
33810;SDS011;20119;48.334;16.206;2022-12-07T13:02:49;10.93;;;7.60;;
33810;SDS011;20119;48.334;16.206;2022-12-07T13:05:19;10.07;;;8.00;;
33810;SDS011;20119;48.334;16.206;2022-12-07T13:07:57;11.63;;;7.93;;
33810;SDS011;20119;48.334;16.206;2022-12-07T13:10:35;10.82;;;7.72;;
33810;SDS011;20119;48.334;16.206;2022-12-07T13:18:42;11.25;;;8.23;;
33810;SDS011;20119;48.334;16.206;2022-12-07T13:26:45;11.05;;;7.65;;
33810;SDS011;20119;48.334;16.206;2022-12-07T13:29:13;10.30;;;8.45;;
33810;SDS011;20119;48.334;16.206;2022-12-07T13:34:31;10.68;;;7.88;;
33810;SDS011;20119;48.334;16.206;2022-12-07T13:37:00;11.02;;;7.80;;
33810;SDS011;20119;48.334;16.206;2022-12-07T13:39:32;10.52;;;8.05;;
33810;SDS011;20119;48.334;16.206;2022-12-07T13:42:06;13.38;;;8.18;;
33810;SDS011;20119;48.334;16.206;2022-12-07T13:44:50;12.03;;;8.43;;
33810;SDS011;20119;48.334;16.206;2022-12-07T13:47:19;11.00;;;8.48;;
33810;SDS011;20119;48.334;16.206;2022-12-07T13:49:54;10.93;;;8.60;;
33810;SDS011;20119;48.334;16.206;2022-12-07T13:52:23;12.60;;;8.85;;
33810;SDS011;20119;48.334;16.206;2022-12-07T13:54:55;11.43;;;8.45;;
33810;SDS011;20119;48.334;16.206;2022-12-07T13:57:24;16.52;;;9.20;;
33810;SDS011;20119;48.334;16.206;2022-12-07T14:05:06;11.30;;;8.70;;
33810;SDS011;20119;48.334;16.206;2022-12-07T14:07:44;13.35;;;9.07;;
33810;SDS011;20119;48.334;16.206;2022-12-07T14:10:24;10.63;;;8.43;;
33810;SDS011;20119;48.334;16.206;2022-12-07T14:12:52;12.38;;;8.75;;
33810;SDS011;20119;48.334;16.206;2022-12-07T14:17:55;11.95;;;9.10;;
33810;SDS011;20119;48.334;16.206;2022-12-07T14:20:31;12.13;;;9.00;;
33810;SDS011;20119;48.334;16.206;2022-12-07T14:22:59;13.20;;;9.68;;
33810;SDS011;20119;48.334;16.206;2022-12-07T14:25:43;12.50;;;8.85;;
33810;SDS011;20119;48.334;16.206;2022-12-07T14:28:24;13.48;;;9.02;;
33810;SDS011;20119;48.334;16.206;2022-12-07T14:30:52;12.48;;;9.30;;
33810;SDS011;20119;48.334;16.206;2022-12-07T14:33:19;13.82;;;9.25;;
33810;SDS011;20119;48.334;16.206;2022-12-07T14:38:24;11.90;;;8.77;;
33810;SDS011;20119;48.334;16.206;2022-12-07T14:40:51;13.20;;;9.35;;
33810;SDS011;20119;48.334;16.206;2022-12-07T14:43:19;15.02;;;9.32;;
33810;SDS011;20119;48.334;16.206;2022-12-07T14:50:57;13.05;;;9.35;;
33810;SDS011;20119;48.334;16.206;2022-12-07T14:53:28;12.98;;;9.38;;
33810;SDS011;20119;48.334;16.206;2022-12-07T14:55:59;13.23;;;9.60;;
33810;SDS011;20119;48.334;16.206;2022-12-07T14:58:26;15.13;;;9.85;;
33810;SDS011;20119;48.334;16.206;2022-12-07T15:00:53;14.35;;;10.00;;
33810;SDS011;20119;48.334;16.206;2022-12-07T15:05:56;14.52;;;10.73;;
33810;SDS011;20119;48.334;16.206;2022-12-07T15:08:23;12.60;;;9.60;;
33810;SDS011;20119;48.334;16.206;2022-12-07T15:10:51;14.48;;;9.95;;
33810;SDS011;20119;48.334;16.206;2022-12-07T15:13:18;13.93;;;9.75;;
33810;SDS011;20119;48.334;16.206;2022-12-07T15:16:03;16.08;;;10.27;;
33810;SDS011;20119;48.334;16.206;2022-12-07T15:18:40;15.95;;;10.65;;
33810;SDS011;20119;48.334;16.206;2022-12-07T15:23:42;14.35;;;10.15;;
33810;SDS011;20119;48.334;16.206;2022-12-07T15:26:11;13.98;;;9.77;;
33810;SDS011;20119;48.334;16.206;2022-12-07T15:31:14;16.20;;;10.10;;
33810;SDS011;20119;48.334;16.206;2022-12-07T15:33:42;14.90;;;11.20;;
33810;SDS011;20119;48.334;16.206;2022-12-07T15:38:45;13.98;;;10.40;;
33810;SDS011;20119;48.334;16.206;2022-12-07T15:41:13;15.65;;;10.43;;
33810;SDS011;20119;48.334;16.206;2022-12-07T15:43:41;13.95;;;10.57;;
33810;SDS011;20119;48.334;16.206;2022-12-07T15:49:02;15.07;;;10.25;;
33810;SDS011;20119;48.334;16.206;2022-12-07T15:54:04;14.32;;;10.57;;
33810;SDS011;20119;48.334;16.206;2022-12-07T15:56:33;14.48;;;11.15;;
33810;SDS011;20119;48.334;16.206;2022-12-07T15:59:03;14.50;;;10.68;;
33810;SDS011;20119;48.334;16.206;2022-12-07T16:01:30;14.48;;;11.20;;
33810;SDS011;20119;48.334;16.206;2022-12-07T16:03:56;16.38;;;11.13;;
33810;SDS011;20119;48.334;16.206;2022-12-07T16:06:25;15.52;;;11.65;;
33810;SDS011;20119;48.334;16.206;2022-12-07T16:08:52;19.70;;;12.57;;
33810;SDS011;20119;48.334;16.206;2022-12-07T16:13:56;17.00;;;12.68;;
33810;SDS011;20119;48.334;16.206;2022-12-07T16:16:23;16.17;;;12.32;;
33810;SDS011;20119;48.334;16.206;2022-12-07T16:29:24;17.67;;;11.98;;
33810;SDS011;20119;48.334;16.206;2022-12-07T16:31:51;15.57;;;11.70;;
